sensor_id;sensor_type;location;lat;lon;timestamp;pressure;altitude;pressure_sealevel;temperature;humidity
64739;BME280;51175;51.186;0.276;2022-12-11T00:00:22;100586.44;;;7.10;68.04
64739;BME280;51175;51.186;0.276;2022-12-11T00:00:53;100583.00;;;7.09;67.75
64739;BME280;51175;51.186;0.276;2022-12-11T00:01:23;100588.25;;;7.09;67.95
64739;BME280;51175;51.186;0.276;2022-12-11T00:01:54;100579.31;;;7.10;67.85
64739;BME280;51175;51.186;0.276;2022-12-11T00:02:24;100583.00;;;7.09;68.01
64739;BME280;51175;51.186;0.276;2022-12-11T00:02:54;100585.63;;;7.09;68.15
64739;BME280;51175;51.186;0.276;2022-12-11T00:03:25;100589.06;;;7.10;68.09
64739;BME280;51175;51.186;0.276;2022-12-11T00:03:56;100592.47;;;7.10;68.06
64739;BME280;51175;51.186;0.276;2022-12-11T00:04:26;100588.25;;;7.09;68.08
64739;BME280;51175;51.186;0.276;2022-12-11T00:04:57;100591.91;;;7.08;68.24
64739;BME280;51175;51.186;0.276;2022-12-11T00:05:27;100587.44;;;7.08;68.29
64739;BME280;51175;51.186;0.276;2022-12-11T00:05:57;100593.50;;;7.09;68.02
64739;BME280;51175;51.186;0.276;2022-12-11T00:06:28;100584.03;;;7.08;68.03
64739;BME280;51175;51.186;0.276;2022-12-11T00:06:58;100586.66;;;7.08;67.91
64739;BME280;51175;51.186;0.276;2022-12-11T00:07:28;100590.31;;;7.07;68.02
64739;BME280;51175;51.186;0.276;2022-12-11T00:07:59;100588.47;;;7.07;68.07
64739;BME280;51175;51.186;0.276;2022-12-11T00:08:29;100592.94;;;7.07;68.08
64739;BME280;51175;51.186;0.276;2022-12-11T00:09:00;100587.69;;;7.07;67.97
64739;BME280;51175;51.186;0.276;2022-12-11T00:09:30;100596.38;;;7.07;68.14
64739;BME280;51175;51.186;0.276;2022-12-11T00:10:01;100592.16;;;7.06;67.86
64739;BME280;51175;51.186;0.276;2022-12-11T00:10:32;100593.97;;;7.06;67.96
64739;BME280;51175;51.186;0.276;2022-12-11T00:11:04;100596.59;;;7.06;67.94
64739;BME280;51175;51.186;0.276;2022-12-11T00:11:34;100595.78;;;7.05;67.97
64739;BME280;51175;51.186;0.276;2022-12-11T00:12:05;100588.94;;;7.04;67.89
64739;BME280;51175;51.186;0.276;2022-12-11T00:12:36;100597.41;;;7.06;67.94
64739;BME280;51175;51.186;0.276;2022-12-11T00:13:06;100596.59;;;7.06;67.84
64739;BME280;51175;51.186;0.276;2022-12-11T00:13:37;100597.63;;;7.05;67.95
64739;BME280;51175;51.186;0.276;2022-12-11T00:14:07;100589.75;;;7.05;67.84
64739;BME280;51175;51.186;0.276;2022-12-11T00:14:40;100593.41;;;7.04;68.13
64739;BME280;51175;51.186;0.276;2022-12-11T00:15:10;100588.13;;;7.04;68.14
64739;BME280;51175;51.186;0.276;2022-12-11T00:15:41;100587.13;;;7.05;68.26
64739;BME280;51175;51.186;0.276;2022-12-11T00:16:11;100591.56;;;7.04;68.15
64739;BME280;51175;51.186;0.276;2022-12-11T00:16:42;100593.41;;;7.04;67.83
64739;BME280;51175;51.186;0.276;2022-12-11T00:17:13;100592.63;;;7.03;67.89
64739;BME280;51175;51.186;0.276;2022-12-11T00:17:43;100591.81;;;7.03;67.74
64739;BME280;51175;51.186;0.276;2022-12-11T00:18:14;100591.81;;;7.03;68.01
64739;BME280;51175;51.186;0.276;2022-12-11T00:18:44;100593.63;;;7.02;67.89
64739;BME280;51175;51.186;0.276;2022-12-11T00:19:15;100587.59;;;7.02;67.96
64739;BME280;51175;51.186;0.276;2022-12-11T00:19:45;100587.59;;;7.02;67.92
64739;BME280;51175;51.186;0.276;2022-12-11T00:20:16;100589.41;;;7.01;67.91
64739;BME280;51175;51.186;0.276;2022-12-11T00:20:46;100581.53;;;7.01;67.94
64739;BME280;51175;51.186;0.276;2022-12-11T00:21:17;100587.03;;;7.00;67.89
64739;BME280;51175;51.186;0.276;2022-12-11T00:21:47;100585.97;;;7.01;67.76
64739;BME280;51175;51.186;0.276;2022-12-11T00:22:18;100587.03;;;7.00;67.76
64739;BME280;51175;51.186;0.276;2022-12-11T00:22:48;100587.84;;;7.00;67.91
64739;BME280;51175;51.186;0.276;2022-12-11T00:23:18;100582.56;;;7.00;68.05
64739;BME280;51175;51.186;0.276;2022-12-11T00:23:49;100587.03;;;7.00;68.21
64739;BME280;51175;51.186;0.276;2022-12-11T00:24:19;100580.97;;;6.99;67.94
64739;BME280;51175;51.186;0.276;2022-12-11T00:24:51;100580.97;;;6.99;67.91
64739;BME280;51175;51.186;0.276;2022-12-11T00:25:21;100586.22;;;6.99;67.78
64739;BME280;51175;51.186;0.276;2022-12-11T00:25:52;100589.06;;;6.98;67.72
64739;BME280;51175;51.186;0.276;2022-12-11T00:26:23;100587.25;;;6.98;68.05
64739;BME280;51175;51.186;0.276;2022-12-11T00:26:53;100585.63;;;6.97;67.88
64739;BME280;51175;51.186;0.276;2022-12-11T00:27:24;100583.81;;;6.98;68.06
64739;BME280;51175;51.186;0.276;2022-12-11T00:27:54;100589.06;;;6.98;67.96
64739;BME280;51175;51.186;0.276;2022-12-11T00:28:25;100585.63;;;6.97;68.05
64739;BME280;51175;51.186;0.276;2022-12-11T00:28:57;100581.19;;;6.98;68.10
64739;BME280;51175;51.186;0.276;2022-12-11T00:29:28;100589.06;;;6.98;67.95
64739;BME280;51175;51.186;0.276;2022-12-11T00:29:58;100591.69;;;6.98;67.95
64739;BME280;51175;51.186;0.276;2022-12-11T00:30:29;100585.63;;;6.97;67.83
64739;BME280;51175;51.186;0.276;2022-12-11T00:31:07;100584.63;;;6.98;67.80
64739;BME280;51175;51.186;0.276;2022-12-11T00:31:37;100588.25;;;6.97;67.86
64739;BME280;51175;51.186;0.276;2022-12-11T00:32:10;100584.88;;;6.97;67.81
64739;BME280;51175;51.186;0.276;2022-12-11T00:32:40;100582.22;;;6.97;67.94
64739;BME280;51175;51.186;0.276;2022-12-11T00:33:12;100584.88;;;6.97;68.09
64739;BME280;51175;51.186;0.276;2022-12-11T00:33:43;100585.88;;;6.95;68.11
64739;BME280;51175;51.186;0.276;2022-12-11T00:34:14;100581.44;;;6.96;68.03
64739;BME280;51175;51.186;0.276;2022-12-11T00:34:45;100587.72;;;6.95;67.97
64739;BME280;51175;51.186;0.276;2022-12-11T00:35:15;100590.34;;;6.95;67.87
64739;BME280;51175;51.186;0.276;2022-12-11T00:35:46;100590.34;;;6.95;67.79
64739;BME280;51175;51.186;0.276;2022-12-11T00:36:22;100586.09;;;6.94;67.88
64739;BME280;51175;51.186;0.276;2022-12-11T00:36:53;100589.78;;;6.93;67.87
64739;BME280;51175;51.186;0.276;2022-12-11T00:37:23;100589.78;;;6.93;68.17
64739;BME280;51175;51.186;0.276;2022-12-11T00:37:54;100590.59;;;6.93;68.01
64739;BME280;51175;51.186;0.276;2022-12-11T00:38:24;100581.88;;;6.93;68.08
64739;BME280;51175;51.186;0.276;2022-12-11T00:38:55;100583.72;;;6.92;68.01
64739;BME280;51175;51.186;0.276;2022-12-11T00:39:25;100588.19;;;6.92;67.96
64739;BME280;51175;51.186;0.276;2022-12-11T00:39:56;100585.56;;;6.92;68.18
64739;BME280;51175;51.186;0.276;2022-12-11T00:40:26;100579.28;;;6.93;68.28
64739;BME280;51175;51.186;0.276;2022-12-11T00:40:58;100579.28;;;6.93;67.99
64739;BME280;51175;51.186;0.276;2022-12-11T00:41:29;100582.94;;;6.92;68.09
64739;BME280;51175;51.186;0.276;2022-12-11T00:41:59;100583.72;;;6.92;68.10
64739;BME280;51175;51.186;0.276;2022-12-11T00:42:31;100580.06;;;6.93;68.20
64739;BME280;51175;51.186;0.276;2022-12-11T00:43:02;100580.06;;;6.93;68.19
64739;BME280;51175;51.186;0.276;2022-12-11T00:43:32;100581.09;;;6.92;68.19
64739;BME280;51175;51.186;0.276;2022-12-11T00:44:03;100582.13;;;6.91;68.16
64739;BME280;51175;51.186;0.276;2022-12-11T00:44:34;100584.53;;;6.93;68.26
64739;BME280;51175;51.186;0.276;2022-12-11T00:45:05;100580.31;;;6.92;68.11
64739;BME280;51175;51.186;0.276;2022-12-11T00:45:37;100580.31;;;6.92;68.08
64739;BME280;51175;51.186;0.276;2022-12-11T00:46:07;100588.19;;;6.92;68.22
64739;BME280;51175;51.186;0.276;2022-12-11T00:46:38;100581.09;;;6.92;68.12
64739;BME280;51175;51.186;0.276;2022-12-11T00:47:08;100582.13;;;6.91;68.11
64739;BME280;51175;51.186;0.276;2022-12-11T00:47:39;100581.31;;;6.91;68.09
64739;BME280;51175;51.186;0.276;2022-12-11T00:48:10;100579.50;;;6.91;67.98
64739;BME280;51175;51.186;0.276;2022-12-11T00:48:41;100582.13;;;6.91;67.98
64739;BME280;51175;51.186;0.276;2022-12-11T00:49:11;100583.16;;;6.90;67.97
64739;BME280;51175;51.186;0.276;2022-12-11T00:49:42;100577.91;;;6.90;68.06
64739;BME280;51175;51.186;0.276;2022-12-11T00:50:12;100577.91;;;6.90;68.09
64739;BME280;51175;51.186;0.276;2022-12-11T00:50:42;100576.31;;;6.89;67.96
64739;BME280;51175;51.186;0.276;2022-12-11T00:51:13;100581.56;;;6.89;68.07
64739;BME280;51175;51.186;0.276;2022-12-11T00:51:43;100584.19;;;6.89;68.22
64739;BME280;51175;51.186;0.276;2022-12-11T00:52:14;100575.53;;;6.89;68.11
64739;BME280;51175;51.186;0.276;2022-12-11T00:52:46;100584.19;;;6.89;68.24
64739;BME280;51175;51.186;0.276;2022-12-11T00:53:17;100573.66;;;6.89;68.53
64739;BME280;51175;51.186;0.276;2022-12-11T00:53:47;100580.53;;;6.90;68.05
64739;BME280;51175;51.186;0.276;2022-12-11T00:54:18;100578.16;;;6.89;68.12
64739;BME280;51175;51.186;0.276;2022-12-11T00:54:48;100578.16;;;6.89;68.09
64739;BME280;51175;51.186;0.276;2022-12-11T00:55:18;100578.94;;;6.89;68.19
64739;BME280;51175;51.186;0.276;2022-12-11T00:55:49;100583.41;;;6.89;68.21
64739;BME280;51175;51.186;0.276;2022-12-11T00:56:21;100580.78;;;6.89;68.17
64739;BME280;51175;51.186;0.276;2022-12-11T00:56:51;100577.34;;;6.88;67.89
64739;BME280;51175;51.186;0.276;2022-12-11T00:57:24;100572.09;;;6.88;67.87
64739;BME280;51175;51.186;0.276;2022-12-11T00:57:55;100581.78;;;6.88;68.01
64739;BME280;51175;51.186;0.276;2022-12-11T00:58:27;100585.22;;;6.88;68.00
64739;BME280;51175;51.186;0.276;2022-12-11T00:58:57;100587.03;;;6.88;68.08
64739;BME280;51175;51.186;0.276;2022-12-11T00:59:28;100579.38;;;6.86;67.80
64739;BME280;51175;51.186;0.276;2022-12-11T00:59:58;100581.78;;;6.88;67.86
64739;BME280;51175;51.186;0.276;2022-12-11T01:00:29;100577.56;;;6.87;67.73
64739;BME280;51175;51.186;0.276;2022-12-11T01:01:11;100581.25;;;6.86;68.10
64739;BME280;51175;51.186;0.276;2022-12-11T01:01:42;100577.56;;;6.87;68.02
64739;BME280;51175;51.186;0.276;2022-12-11T01:02:12;100573.38;;;6.86;68.02
64739;BME280;51175;51.186;0.276;2022-12-11T01:02:43;100571.50;;;6.86;67.86
64739;BME280;51175;51.186;0.276;2022-12-11T01:03:14;100575.97;;;6.86;68.00
64739;BME280;51175;51.186;0.276;2022-12-11T01:03:45;100569.13;;;6.85;67.99
64739;BME280;51175;51.186;0.276;2022-12-11T01:04:15;100570.75;;;6.86;68.08
64739;BME280;51175;51.186;0.276;2022-12-11T01:04:46;100568.09;;;6.86;67.96
64739;BME280;51175;51.186;0.276;2022-12-11T01:05:16;100569.94;;;6.85;67.94
64739;BME280;51175;51.186;0.276;2022-12-11T01:05:51;100569.94;;;6.85;68.01
64739;BME280;51175;51.186;0.276;2022-12-11T01:06:24;100556.00;;;6.85;67.91
64739;BME280;51175;51.186;0.276;2022-12-11T01:06:54;100567.31;;;6.85;67.78
64739;BME280;51175;51.186;0.276;2022-12-11T01:07:25;100561.25;;;6.85;67.88
64739;BME280;51175;51.186;0.276;2022-12-11T01:07:55;100561.25;;;6.85;67.84
64739;BME280;51175;51.186;0.276;2022-12-11T01:08:26;100565.72;;;6.84;67.93
64739;BME280;51175;51.186;0.276;2022-12-11T01:08:56;100562.28;;;6.83;67.82
64739;BME280;51175;51.186;0.276;2022-12-11T01:09:45;100561.25;;;6.85;67.97
64739;BME280;51175;51.186;0.276;2022-12-11T01:10:34;100564.91;;;6.83;67.82
64739;BME280;51175;51.186;0.276;2022-12-11T01:11:07;100561.47;;;6.83;67.85
64739;BME280;51175;51.186;0.276;2022-12-11T01:11:40;100561.72;;;6.81;68.09
64739;BME280;51175;51.186;0.276;2022-12-11T01:12:11;100564.09;;;6.83;67.83
64739;BME280;51175;51.186;0.276;2022-12-11T01:12:41;100569.34;;;6.83;68.00
64739;BME280;51175;51.186;0.276;2022-12-11T01:13:11;100566.97;;;6.81;68.04
64739;BME280;51175;51.186;0.276;2022-12-11T01:13:42;100566.97;;;6.81;68.18
64739;BME280;51175;51.186;0.276;2022-12-11T01:14:13;100565.13;;;6.82;68.24
64739;BME280;51175;51.186;0.276;2022-12-11T01:14:43;100568.81;;;6.81;68.22
64739;BME280;51175;51.186;0.276;2022-12-11T01:15:14;100569.59;;;6.81;68.20
64739;BME280;51175;51.186;0.276;2022-12-11T01:15:44;100566.97;;;6.81;68.22
64739;BME280;51175;51.186;0.276;2022-12-11T01:16:15;100565.13;;;6.82;68.10
64739;BME280;51175;51.186;0.276;2022-12-11T01:16:45;100565.38;;;6.80;68.17
64739;BME280;51175;51.186;0.276;2022-12-11T01:17:17;100566.97;;;6.81;68.22
64739;BME280;51175;51.186;0.276;2022-12-11T01:17:48;100565.38;;;6.80;68.28
64739;BME280;51175;51.186;0.276;2022-12-11T01:18:19;100561.94;;;6.80;68.33
64739;BME280;51175;51.186;0.276;2022-12-11T01:18:49;100564.56;;;6.80;68.14
64739;BME280;51175;51.186;0.276;2022-12-11T01:19:20;100570.63;;;6.80;68.12
64739;BME280;51175;51.186;0.276;2022-12-11T01:19:53;100568.81;;;6.81;68.14
64739;BME280;51175;51.186;0.276;2022-12-11T01:20:24;100559.31;;;6.80;68.11
64739;BME280;51175;51.186;0.276;2022-12-11T01:20:55;100565.38;;;6.80;68.21
64739;BME280;51175;51.186;0.276;2022-12-11T01:21:25;100561.94;;;6.80;68.20
64739;BME280;51175;51.186;0.276;2022-12-11T01:21:56;100561.16;;;6.79;68.14
64739;BME280;51175;51.186;0.276;2022-12-11T01:22:26;100560.13;;;6.80;68.10
64739;BME280;51175;51.186;0.276;2022-12-11T01:22:59;100553.28;;;6.79;67.95
64739;BME280;51175;51.186;0.276;2022-12-11T01:23:29;100556.69;;;6.80;67.98
64739;BME280;51175;51.186;0.276;2022-12-11T01:24:00;100554.88;;;6.80;67.95
64739;BME280;51175;51.186;0.276;2022-12-11T01:24:30;100555.69;;;6.81;67.96
64739;BME280;51175;51.186;0.276;2022-12-11T01:25:02;100557.50;;;6.80;68.14
64739;BME280;51175;51.186;0.276;2022-12-11T01:25:34;100556.69;;;6.80;68.16
64739;BME280;51175;51.186;0.276;2022-12-11T01:26:12;100554.06;;;6.80;68.18
64739;BME280;51175;51.186;0.276;2022-12-11T01:26:43;100557.72;;;6.79;68.14
64739;BME280;51175;51.186;0.276;2022-12-11T01:27:14;100550.66;;;6.79;68.02
64739;BME280;51175;51.186;0.276;2022-12-11T01:27:44;100553.28;;;6.79;68.22
64739;BME280;51175;51.186;0.276;2022-12-11T01:28:15;100555.91;;;6.79;68.03
64739;BME280;51175;51.186;0.276;2022-12-11T01:28:48;100549.84;;;6.79;68.23
64739;BME280;51175;51.186;0.276;2022-12-11T01:29:19;100549.03;;;6.78;68.25
64739;BME280;51175;51.186;0.276;2022-12-11T01:29:49;100552.47;;;6.79;68.26
64739;BME280;51175;51.186;0.276;2022-12-11T01:30:21;100548.03;;;6.79;68.12
64739;BME280;51175;51.186;0.276;2022-12-11T01:30:52;100551.66;;;6.78;68.20
64739;BME280;51175;51.186;0.276;2022-12-11T01:31:22;100550.66;;;6.79;68.19
64739;BME280;51175;51.186;0.276;2022-12-11T01:31:53;100548.28;;;6.78;67.97
64739;BME280;51175;51.186;0.276;2022-12-11T01:32:23;100550.09;;;6.77;67.84
64739;BME280;51175;51.186;0.276;2022-12-11T01:32:53;100549.28;;;6.77;67.82
64739;BME280;51175;51.186;0.276;2022-12-11T01:33:24;100544.03;;;6.77;67.70
64739;BME280;51175;51.186;0.276;2022-12-11T01:33:54;100552.94;;;6.76;67.96
64739;BME280;51175;51.186;0.276;2022-12-11T01:34:28;100551.91;;;6.77;68.27
64739;BME280;51175;51.186;0.276;2022-12-11T01:34:59;100546.66;;;6.77;68.18
64739;BME280;51175;51.186;0.276;2022-12-11T01:35:32;100553.75;;;6.76;68.07
64739;BME280;51175;51.186;0.276;2022-12-11T01:36:17;100550.31;;;6.76;68.12
64739;BME280;51175;51.186;0.276;2022-12-11T01:36:51;100542.44;;;6.76;68.09
64739;BME280;51175;51.186;0.276;2022-12-11T01:37:21;100549.50;;;6.75;68.01
64739;BME280;51175;51.186;0.276;2022-12-11T01:37:51;100546.88;;;6.75;68.17
64739;BME280;51175;51.186;0.276;2022-12-11T01:38:22;100548.72;;;6.75;68.15
64739;BME280;51175;51.186;0.276;2022-12-11T01:38:53;100546.88;;;6.75;68.12
64739;BME280;51175;51.186;0.276;2022-12-11T01:39:23;100546.09;;;6.75;68.19
64739;BME280;51175;51.186;0.276;2022-12-11T01:39:54;100549.50;;;6.75;68.26
64739;BME280;51175;51.186;0.276;2022-12-11T01:40:24;100545.06;;;6.76;68.19
64739;BME280;51175;51.186;0.276;2022-12-11T01:40:55;100548.50;;;6.76;68.01
64739;BME280;51175;51.186;0.276;2022-12-11T01:41:26;100551.34;;;6.75;67.96
64739;BME280;51175;51.186;0.276;2022-12-11T01:41:57;100546.88;;;6.75;68.01
64739;BME280;51175;51.186;0.276;2022-12-11T01:42:28;100549.50;;;6.75;68.08
64739;BME280;51175;51.186;0.276;2022-12-11T01:42:58;100543.47;;;6.75;68.08
64739;BME280;51175;51.186;0.276;2022-12-11T01:43:29;100547.94;;;6.74;68.00
64739;BME280;51175;51.186;0.276;2022-12-11T01:45:47;100548.97;;;6.73;67.86
64739;BME280;51175;51.186;0.276;2022-12-11T01:46:17;100555.00;;;6.74;67.68
64739;BME280;51175;51.186;0.276;2022-12-11T01:46:48;100549.75;;;6.74;67.91
64739;BME280;51175;51.186;0.276;2022-12-11T01:47:18;100548.97;;;6.73;67.88
64739;BME280;51175;51.186;0.276;2022-12-11T01:47:53;100548.16;;;6.73;67.90
64739;BME280;51175;51.186;0.276;2022-12-11T01:48:27;100550.78;;;6.73;67.87
64739;BME280;51175;51.186;0.276;2022-12-11T01:49:01;100548.16;;;6.73;68.03
64739;BME280;51175;51.186;0.276;2022-12-11T01:49:33;100554.22;;;6.73;68.01
64739;BME280;51175;51.186;0.276;2022-12-11T01:50:04;100549.97;;;6.72;68.32
64739;BME280;51175;51.186;0.276;2022-12-11T01:50:53;100549.97;;;6.72;68.13
64739;BME280;51175;51.186;0.276;2022-12-11T01:51:25;100544.72;;;6.72;67.95
64739;BME280;51175;51.186;0.276;2022-12-11T01:52:00;100548.16;;;6.73;67.89
64739;BME280;51175;51.186;0.276;2022-12-11T01:52:32;100548.38;;;6.71;68.22
64739;BME280;51175;51.186;0.276;2022-12-11T01:53:05;100545.75;;;6.71;68.08
64739;BME280;51175;51.186;0.276;2022-12-11T01:53:40;100552.06;;;6.70;67.95
64739;BME280;51175;51.186;0.276;2022-12-11T01:54:13;100544.19;;;6.70;67.97
64739;BME280;51175;51.186;0.276;2022-12-11T01:54:47;100551.25;;;6.69;68.09
64739;BME280;51175;51.186;0.276;2022-12-11T01:55:18;100544.19;;;6.70;67.97
64739;BME280;51175;51.186;0.276;2022-12-11T01:55:52;100547.03;;;6.68;68.03
64739;BME280;51175;51.186;0.276;2022-12-11T01:56:24;100554.69;;;6.70;68.14
64739;BME280;51175;51.186;0.276;2022-12-11T01:56:57;100551.25;;;6.69;67.88
64739;BME280;51175;51.186;0.276;2022-12-11T01:57:30;100553.88;;;6.69;67.95
64739;BME280;51175;51.186;0.276;2022-12-11T01:58:01;100553.88;;;6.69;67.92
64739;BME280;51175;51.186;0.276;2022-12-11T01:58:40;100552.28;;;6.68;67.96
64739;BME280;51175;51.186;0.276;2022-12-11T01:59:14;100549.66;;;6.68;67.92
64739;BME280;51175;51.186;0.276;2022-12-11T01:59:46;100547.03;;;6.68;68.02
64739;BME280;51175;51.186;0.276;2022-12-11T02:00:18;100546.22;;;6.68;67.99
64739;BME280;51175;51.186;0.276;2022-12-11T02:00:48;100540.97;;;6.68;67.94
64739;BME280;51175;51.186;0.276;2022-12-11T02:01:27;100548.03;;;6.67;67.99
64739;BME280;51175;51.186;0.276;2022-12-11T02:02:07;100550.66;;;6.67;67.91
64739;BME280;51175;51.186;0.276;2022-12-11T02:02:40;100543.03;;;6.66;68.21
64739;BME280;51175;51.186;0.276;2022-12-11T02:03:10;100551.72;;;6.66;68.07
64739;BME280;51175;51.186;0.276;2022-12-11T02:03:41;100547.47;;;6.65;68.08
64739;BME280;51175;51.186;0.276;2022-12-11T02:04:12;100549.09;;;6.66;68.16
64739;BME280;51175;51.186;0.276;2022-12-11T02:04:43;100545.88;;;6.64;67.73
64739;BME280;51175;51.186;0.276;2022-12-11T02:05:15;100555.56;;;6.64;67.83
64739;BME280;51175;51.186;0.276;2022-12-11T02:05:45;100545.88;;;6.64;67.77
64739;BME280;51175;51.186;0.276;2022-12-11T02:06:37;100552.72;;;6.65;67.78
64739;BME280;51175;51.186;0.276;2022-12-11T02:07:08;100545.06;;;6.64;67.94
64739;BME280;51175;51.186;0.276;2022-12-11T02:07:51;100550.31;;;6.64;67.71
64739;BME280;51175;51.186;0.276;2022-12-11T02:08:23;100554.00;;;6.63;67.91
64739;BME280;51175;51.186;0.276;2022-12-11T02:08:53;100555.81;;;6.62;67.97
64739;BME280;51175;51.186;0.276;2022-12-11T02:09:27;100553.19;;;6.62;67.99
64739;BME280;51175;51.186;0.276;2022-12-11T02:09:58;100553.19;;;6.62;67.98
64739;BME280;51175;51.186;0.276;2022-12-11T02:11:20;100558.44;;;6.62;67.99
64739;BME280;51175;51.186;0.276;2022-12-11T02:12:06;100555.03;;;6.62;68.11
64739;BME280;51175;51.186;0.276;2022-12-11T02:12:53;100556.84;;;6.61;68.06
64739;BME280;51175;51.186;0.276;2022-12-11T02:14:41;100552.63;;;6.60;68.15
64739;BME280;51175;51.186;0.276;2022-12-11T02:15:36;100554.69;;;6.58;68.10
64739;BME280;51175;51.186;0.276;2022-12-11T02:16:18;100558.34;;;6.57;68.02
64739;BME280;51175;51.186;0.276;2022-12-11T02:17:13;100553.31;;;6.55;67.87
64739;BME280;51175;51.186;0.276;2022-12-11T02:17:58;100560.38;;;6.55;67.87
64739;BME280;51175;51.186;0.276;2022-12-11T02:19:03;100559.81;;;6.53;67.98
64739;BME280;51175;51.186;0.276;2022-12-11T02:20:03;100556.41;;;6.52;68.04
64739;BME280;51175;51.186;0.276;2022-12-11T02:21:13;100556.66;;;6.51;68.16
64739;BME280;51175;51.186;0.276;2022-12-11T02:21:50;100561.88;;;6.51;68.08
64739;BME280;51175;51.186;0.276;2022-12-11T02:26:05;100549.47;;;6.46;67.94
64739;BME280;51175;51.186;0.276;2022-12-11T02:28:50;100548.31;;;6.42;67.98
64739;BME280;51175;51.186;0.276;2022-12-11T02:30:06;100549.13;;;6.42;68.24
64739;BME280;51175;51.186;0.276;2022-12-11T02:30:39;100554.13;;;6.44;68.34
64739;BME280;51175;51.186;0.276;2022-12-11T02:31:21;100557.78;;;6.43;68.37
64739;BME280;51175;51.186;0.276;2022-12-11T02:32:05;100564.63;;;6.44;68.51
64739;BME280;51175;51.186;0.276;2022-12-11T02:33:14;100564.63;;;6.44;68.60
64739;BME280;51175;51.186;0.276;2022-12-11T02:33:51;100560.41;;;6.43;68.43
64739;BME280;51175;51.186;0.276;2022-12-11T02:34:29;100560.19;;;6.44;68.38
64739;BME280;51175;51.186;0.276;2022-12-11T02:35:41;100564.41;;;6.45;68.44
64739;BME280;51175;51.186;0.276;2022-12-11T02:36:13;100559.38;;;6.44;68.38
64739;BME280;51175;51.186;0.276;2022-12-11T02:36:51;100559.38;;;6.44;68.42
64739;BME280;51175;51.186;0.276;2022-12-11T02:37:26;100560.19;;;6.44;68.34
64739;BME280;51175;51.186;0.276;2022-12-11T02:38:05;100561.78;;;6.45;68.32
64739;BME280;51175;51.186;0.276;2022-12-11T02:38:40;100560.19;;;6.44;68.18
64739;BME280;51175;51.186;0.276;2022-12-11T02:39:14;100559.38;;;6.44;68.23
64739;BME280;51175;51.186;0.276;2022-12-11T02:39:45;100558.56;;;6.43;68.20
64739;BME280;51175;51.186;0.276;2022-12-11T02:40:21;100556.75;;;6.44;68.28
64739;BME280;51175;51.186;0.276;2022-12-11T02:40:55;100562.81;;;6.44;68.35
64739;BME280;51175;51.186;0.276;2022-12-11T02:41:27;100564.41;;;6.45;68.14
64739;BME280;51175;51.186;0.276;2022-12-11T02:41:59;100562.81;;;6.44;68.13
64739;BME280;51175;51.186;0.276;2022-12-11T02:42:32;100563.81;;;6.43;67.88
64739;BME280;51175;51.186;0.276;2022-12-11T02:43:05;100565.44;;;6.44;68.04
64739;BME280;51175;51.186;0.276;2022-12-11T02:43:37;100564.63;;;6.44;67.97
64739;BME280;51175;51.186;0.276;2022-12-11T02:44:11;100565.44;;;6.44;68.09
64739;BME280;51175;51.186;0.276;2022-12-11T02:44:44;100559.16;;;6.45;68.11
64739;BME280;51175;51.186;0.276;2022-12-11T02:45:17;100562.00;;;6.44;68.27
64739;BME280;51175;51.186;0.276;2022-12-11T02:45:49;100561.19;;;6.43;68.18
64739;BME280;51175;51.186;0.276;2022-12-11T02:46:20;100555.94;;;6.43;68.15
64739;BME280;51175;51.186;0.276;2022-12-11T02:46:52;100561.19;;;6.43;68.24
64739;BME280;51175;51.186;0.276;2022-12-11T02:47:25;100554.13;;;6.44;68.23
64739;BME280;51175;51.186;0.276;2022-12-11T02:47:58;100556.75;;;6.44;68.24
64739;BME280;51175;51.186;0.276;2022-12-11T02:48:31;100556.75;;;6.44;68.05
64739;BME280;51175;51.186;0.276;2022-12-11T02:49:05;100553.09;;;6.45;68.27
64739;BME280;51175;51.186;0.276;2022-12-11T02:49:36;100560.19;;;6.44;68.25
64739;BME280;51175;51.186;0.276;2022-12-11T02:50:13;100554.94;;;6.44;68.17
64739;BME280;51175;51.186;0.276;2022-12-11T02:50:46;100552.31;;;6.44;68.14
64739;BME280;51175;51.186;0.276;2022-12-11T02:51:22;100558.34;;;6.45;68.14
64739;BME280;51175;51.186;0.276;2022-12-11T02:51:55;100553.09;;;6.45;68.19
64739;BME280;51175;51.186;0.276;2022-12-11T02:52:29;100546.84;;;6.46;68.24
64739;BME280;51175;51.186;0.276;2022-12-11T02:53:01;100549.69;;;6.44;68.30
64739;BME280;51175;51.186;0.276;2022-12-11T02:53:36;100551.50;;;6.44;67.91
64739;BME280;51175;51.186;0.276;2022-12-11T02:54:11;100553.91;;;6.45;67.96
64739;BME280;51175;51.186;0.276;2022-12-11T02:54:43;100552.31;;;6.44;67.94
64739;BME280;51175;51.186;0.276;2022-12-11T02:55:15;100551.50;;;6.44;67.80
64739;BME280;51175;51.186;0.276;2022-12-11T02:55:49;100549.69;;;6.44;67.90
64739;BME280;51175;51.186;0.276;2022-12-11T02:56:27;100548.66;;;6.45;68.05
64739;BME280;51175;51.186;0.276;2022-12-11T02:57:07;100549.69;;;6.44;67.94
64739;BME280;51175;51.186;0.276;2022-12-11T02:58:30;100540.22;;;6.43;67.93
64739;BME280;51175;51.186;0.276;2022-12-11T02:59:13;100541.00;;;6.44;68.03
64739;BME280;51175;51.186;0.276;2022-12-11T02:59:45;100534.19;;;6.43;68.04
64739;BME280;51175;51.186;0.276;2022-12-11T03:00:16;100537.81;;;6.42;68.17
64739;BME280;51175;51.186;0.276;2022-12-11T03:00:47;100537.81;;;6.42;68.02
64739;BME280;51175;51.186;0.276;2022-12-11T03:01:18;100534.41;;;6.41;67.92
64739;BME280;51175;51.186;0.276;2022-12-11T03:01:49;100534.41;;;6.41;67.98
64739;BME280;51175;51.186;0.276;2022-12-11T03:02:19;100530.16;;;6.40;68.10
64739;BME280;51175;51.186;0.276;2022-12-11T03:02:50;100530.97;;;6.41;68.14
64739;BME280;51175;51.186;0.276;2022-12-11T03:03:21;100530.97;;;6.41;68.08
64739;BME280;51175;51.186;0.276;2022-12-11T03:03:53;100534.41;;;6.41;68.20
64739;BME280;51175;51.186;0.276;2022-12-11T03:04:24;100531.78;;;6.41;68.25
64739;BME280;51175;51.186;0.276;2022-12-11T03:04:55;100522.31;;;6.40;67.96
64739;BME280;51175;51.186;0.276;2022-12-11T03:05:26;100529.41;;;6.40;67.84
64739;BME280;51175;51.186;0.276;2022-12-11T03:05:57;100524.94;;;6.40;68.01